createdAt,value
2022-09-17T00:01:20.914Z,3.65
2022-09-17T00:04:00.306Z,3.40
2022-09-17T00:06:34.028Z,3.70
2022-09-17T00:09:07.081Z,3.53
2022-09-17T00:11:41.225Z,3.47
2022-09-17T00:14:16.216Z,3.40
2022-09-17T00:16:49.330Z,3.47
2022-09-17T00:19:23.020Z,3.38
2022-09-17T00:21:54.569Z,3.63
2022-09-17T00:24:26.146Z,3.55
2022-09-17T00:26:57.746Z,3.70
2022-09-17T00:29:29.403Z,3.15
2022-09-17T00:32:01.103Z,3.42
2022-09-17T00:34:32.734Z,3.20
2022-09-17T00:37:07.284Z,3.40
2022-09-17T00:39:38.919Z,3.20
2022-09-17T00:42:13.058Z,3.10
2022-09-17T00:44:53.398Z,2.85
2022-09-17T00:47:29.018Z,3.00
2022-09-17T00:50:15.202Z,2.80
2022-09-17T00:52:51.369Z,3.00
2022-09-17T00:55:31.622Z,2.97
2022-09-17T00:58:06.146Z,2.75
2022-09-17T01:00:37.911Z,2.55
2022-09-17T01:03:09.810Z,2.90
2022-09-17T01:05:50.019Z,3.10
2022-09-17T01:08:35.400Z,2.72
2022-09-17T01:11:18.950Z,3.08
2022-09-17T01:14:11.817Z,2.70
2022-09-17T01:16:58.123Z,2.50
2022-09-17T01:19:58.195Z,2.83
2022-09-17T01:23:14.614Z,2.45
2022-09-17T01:26:35.522Z,2.60
2022-09-17T01:29:25.316Z,2.80
2022-09-17T01:32:12.767Z,2.70
2022-09-17T01:35:24.773Z,2.70
2022-09-17T01:38:11.957Z,2.58
2022-09-17T01:40:56.458Z,2.60
2022-09-17T01:43:36.261Z,3.08
2022-09-17T01:46:17.209Z,3.00
2022-09-17T01:48:52.092Z,2.70
2022-09-17T01:51:26.527Z,2.45
2022-09-17T01:54:07.462Z,2.53
2022-09-17T01:56:56.326Z,2.42
2022-09-17T01:59:33.738Z,2.33
2022-09-17T02:02:18.502Z,2.40
2022-09-17T02:05:22.269Z,2.53
2022-09-17T02:07:59.193Z,2.55
2022-09-17T02:10:36.926Z,2.35
2022-09-17T02:13:22.781Z,2.50
2022-09-17T02:16:02.219Z,2.53
2022-09-17T02:18:46.576Z,2.50
2022-09-17T02:21:28.897Z,2.70
2022-09-17T02:24:23.062Z,2.50
2022-09-17T02:27:11.671Z,2.38
2022-09-17T02:29:44.609Z,2.58
2022-09-17T02:32:16.265Z,2.55
2022-09-17T02:34:47.853Z,2.42
2022-09-17T02:37:19.575Z,2.47
2022-09-17T02:39:51.231Z,2.60
2022-09-17T02:42:32.320Z,2.55
2022-09-17T02:45:25.366Z,2.80
2022-09-17T02:48:32.559Z,2.58
2022-09-17T02:51:35.239Z,2.50
2022-09-17T02:54:18.551Z,2.50
2022-09-17T02:57:05.031Z,2.50
2022-09-17T03:00:09.492Z,2.40
2022-09-17T03:02:47.250Z,2.38
2022-09-17T03:05:21.871Z,2.35
2022-09-17T03:07:56.799Z,2.33
2022-09-17T03:10:30.790Z,2.40
2022-09-17T03:13:02.427Z,2.20
2022-09-17T03:15:34.167Z,2.20
2022-09-17T03:18:05.815Z,2.00
2022-09-17T03:20:37.695Z,1.92
2022-09-17T03:23:09.258Z,2.10
2022-09-17T03:25:40.899Z,2.22
2022-09-17T03:28:16.594Z,1.80
2022-09-17T03:30:48.201Z,2.00
2022-09-17T03:33:20.134Z,2.03
2022-09-17T03:35:51.759Z,1.95
2022-09-17T03:38:24.054Z,1.92
2022-09-17T03:41:04.082Z,1.73
2022-09-17T03:43:35.734Z,1.98
2022-09-17T03:46:07.783Z,1.70
2022-09-17T03:48:39.774Z,1.88
2022-09-17T03:51:11.689Z,1.70
2022-09-17T03:53:43.316Z,1.95
2022-09-17T03:56:15.025Z,1.50
2022-09-17T03:58:46.601Z,2.45
2022-09-17T04:01:18.407Z,2.10
2022-09-17T04:03:50.070Z,1.73
2022-09-17T04:06:21.903Z,1.60
2022-09-17T04:08:53.606Z,2.17
2022-09-17T04:11:25.290Z,1.88
2022-09-17T04:13:56.952Z,1.73
2022-09-17T04:16:28.647Z,1.90
2022-09-17T04:19:00.447Z,1.92
2022-09-17T04:21:32.225Z,1.80
2022-09-17T04:24:04.034Z,1.83
2022-09-17T04:26:35.663Z,1.88
2022-09-17T04:29:07.302Z,1.90
2022-09-17T04:31:39.023Z,1.90
2022-09-17T04:34:10.611Z,1.73
2022-09-17T04:36:42.208Z,2.05
2022-09-17T04:39:13.799Z,1.90
2022-09-17T04:41:45.781Z,2.05
2022-09-17T04:44:17.402Z,1.58
2022-09-17T04:46:49.046Z,2.40
2022-09-17T04:49:20.624Z,1.52
2022-09-17T04:51:52.215Z,1.83
2022-09-17T04:54:24.237Z,1.70
2022-09-17T04:56:55.846Z,1.50
2022-09-17T04:59:27.425Z,1.90
2022-09-17T05:02:01.067Z,1.52
2022-09-17T05:04:32.677Z,1.40
2022-09-17T05:07:04.473Z,1.80
2022-09-17T05:09:36.546Z,1.30
2022-09-17T05:12:08.133Z,1.40
2022-09-17T05:14:42.538Z,1.50
2022-09-17T05:17:14.167Z,1.55
2022-09-17T05:19:46.193Z,1.30
2022-09-17T05:22:21.425Z,1.52
2022-09-17T05:24:53.362Z,1.30
2022-09-17T05:27:25.016Z,1.52
2022-09-17T05:29:56.579Z,1.38
2022-09-17T05:32:28.233Z,1.58
2022-09-17T05:35:02.548Z,1.35
2022-09-17T05:37:37.508Z,1.63
2022-09-17T05:40:10.273Z,1.80
2022-09-17T05:42:42.046Z,1.70
2022-09-17T05:45:13.954Z,1.48
2022-09-17T05:47:45.565Z,1.60
2022-09-17T05:50:17.349Z,1.67
2022-09-17T05:52:49.104Z,1.60
2022-09-17T05:55:22.495Z,1.63
2022-09-17T05:57:54.160Z,1.50
2022-09-17T06:00:25.848Z,1.50
2022-09-17T06:02:57.960Z,1.55
2022-09-17T06:05:29.590Z,1.50
2022-09-17T06:08:01.301Z,1.58
2022-09-17T06:10:39.377Z,1.75
2022-09-17T06:13:11.030Z,1.55
2022-09-17T06:15:42.625Z,2.08
2022-09-17T06:18:14.256Z,1.52
2022-09-17T06:20:56.732Z,1.80
2022-09-17T06:23:33.171Z,1.70
2022-09-17T06:26:06.246Z,1.75
2022-09-17T06:28:41.521Z,1.70
2022-09-17T06:31:14.078Z,2.05
2022-09-17T06:33:45.811Z,1.80
2022-09-17T06:36:17.509Z,2.10
2022-09-17T06:38:49.159Z,1.80
2022-09-17T06:41:20.933Z,2.03
2022-09-17T06:43:56.948Z,2.15
2022-09-17T06:46:28.582Z,1.73
2022-09-17T06:49:00.291Z,2.33
2022-09-17T06:51:31.901Z,1.77
2022-09-17T06:54:03.517Z,2.00
2022-09-17T06:56:35.154Z,2.08
2022-09-17T06:59:06.741Z,2.08
2022-09-17T07:01:38.385Z,2.20
2022-09-17T07:04:10.107Z,2.25
2022-09-17T07:06:43.490Z,2.22
2022-09-17T07:09:15.086Z,1.90
2022-09-17T07:11:46.671Z,2.28
2022-09-17T07:14:19.210Z,2.00
2022-09-17T07:16:52.778Z,1.90
2022-09-17T07:19:24.436Z,2.00
2022-09-17T07:21:56.012Z,1.92
2022-09-17T07:24:32.623Z,1.85
2022-09-17T07:27:04.666Z,1.85
2022-09-17T07:29:36.783Z,1.98
2022-09-17T07:32:08.440Z,2.40
2022-09-17T07:34:40.166Z,1.73
2022-09-17T07:37:11.717Z,1.90
2022-09-17T07:39:44.134Z,1.70
2022-09-17T07:42:15.766Z,1.70
2022-09-17T07:44:47.666Z,2.15
2022-09-17T07:47:20.027Z,1.90
2022-09-17T07:49:51.669Z,1.92
2022-09-17T07:52:23.273Z,1.98
2022-09-17T07:54:54.850Z,2.08
2022-09-17T07:57:26.841Z,1.80
2022-09-17T07:59:58.494Z,1.73
2022-09-17T08:02:30.210Z,1.95
2022-09-17T08:05:04.924Z,2.10
2022-09-17T08:10:08.339Z,1.50
2022-09-17T08:12:39.917Z,1.60
2022-09-17T08:15:11.532Z,1.52
2022-09-17T08:17:46.949Z,1.50
2022-09-17T08:20:19.200Z,1.50
2022-09-17T08:22:50.753Z,1.45
2022-09-17T08:25:22.444Z,1.33
2022-09-17T08:27:57.774Z,1.23
2022-09-17T08:30:29.411Z,1.30
2022-09-17T08:33:00.988Z,2.13
2022-09-17T08:35:32.617Z,1.40
2022-09-17T08:38:04.338Z,1.20
2022-09-17T08:40:45.926Z,1.20
2022-09-17T08:43:19.657Z,1.45
2022-09-17T08:45:59.225Z,1.00
2022-09-17T08:49:06.654Z,1.75
2022-09-17T08:51:56.427Z,1.20
2022-09-17T08:54:36.562Z,1.83
2022-09-17T08:57:34.411Z,2.03
2022-09-17T09:00:13.649Z,1.20
2022-09-17T09:03:12.930Z,1.10
2022-09-17T09:05:48.116Z,1.23
2022-09-17T09:08:30.677Z,1.38
2022-09-17T09:11:11.489Z,1.10
2022-09-17T09:13:53.179Z,1.65
2022-09-17T09:16:27.192Z,0.98
2022-09-17T09:19:22.014Z,1.20
2022-09-17T09:22:13.095Z,1.80
2022-09-17T09:24:54.236Z,1.60
2022-09-17T09:27:32.836Z,1.35
2022-09-17T09:30:10.540Z,1.50
2022-09-17T09:32:52.439Z,1.20
2022-09-17T09:35:27.672Z,1.27
2022-09-17T09:38:35.646Z,1.50
2022-09-17T09:41:22.453Z,1.23
2022-09-17T09:44:04.819Z,1.00
2022-09-17T09:46:48.132Z,1.15
2022-09-17T09:49:43.356Z,1.30
2022-09-17T09:52:32.810Z,1.20
2022-09-17T09:55:38.608Z,1.10
2022-09-17T09:58:35.662Z,1.00
2022-09-17T10:01:16.122Z,1.13
2022-09-17T10:03:51.883Z,1.17
2022-09-17T10:06:24.033Z,1.23
2022-09-17T10:08:55.554Z,1.23
2022-09-17T10:11:29.450Z,1.30
2022-09-17T10:14:22.867Z,1.40
2022-09-17T10:17:15.373Z,1.63
2022-09-17T10:20:00.180Z,1.48
2022-09-17T10:22:36.922Z,1.42
2022-09-17T10:25:28.647Z,1.70
2022-09-17T10:28:04.571Z,1.80
2022-09-17T10:30:36.302Z,1.60
2022-09-17T10:33:36.909Z,1.60
2022-09-17T10:36:13.541Z,1.67
2022-09-17T10:38:46.355Z,2.05
2022-09-17T10:41:24.916Z,1.83
2022-09-17T10:43:56.486Z,1.77
2022-09-17T10:46:33.802Z,1.50
2022-09-17T10:49:18.065Z,1.50
2022-09-17T10:51:49.682Z,1.50
2022-09-17T10:54:58.395Z,1.65
2022-09-17T10:57:55.195Z,1.58
2022-09-17T11:00:33.150Z,1.58
2022-09-17T11:03:31.605Z,1.48
2022-09-17T11:06:21.678Z,1.33
2022-09-17T11:09:05.139Z,1.63
2022-09-17T11:12:12.672Z,1.45
2022-09-17T11:14:53.359Z,1.48
2022-09-17T11:17:43.882Z,1.50
2022-09-17T11:20:32.581Z,1.45
2022-09-17T11:23:23.634Z,1.70
2022-09-17T11:26:00.790Z,1.80
2022-09-17T11:28:53.298Z,1.40
2022-09-17T11:31:35.889Z,1.20
2022-09-17T11:34:29.430Z,1.30
2022-09-17T11:37:12.831Z,2.55
2022-09-17T11:39:49.164Z,1.52
2022-09-17T11:42:30.946Z,1.00
2022-09-17T11:45:39.929Z,1.30
2022-09-17T11:48:20.663Z,0.95
2022-09-17T11:51:05.381Z,1.40
2022-09-17T11:54:06.210Z,0.90
2022-09-17T11:56:44.859Z,1.27
2022-09-17T11:59:30.486Z,1.05
2022-09-17T12:02:09.158Z,1.00
2022-09-17T12:05:09.989Z,1.00
2022-09-17T12:08:15.110Z,1.30
2022-09-17T12:10:53.063Z,1.35
2022-09-17T12:13:30.158Z,1.35
2022-09-17T12:16:24.889Z,1.42
2022-09-17T12:19:16.706Z,1.00
2022-09-17T12:21:55.971Z,1.55
2022-09-17T12:24:32.329Z,2.08
2022-09-17T12:27:30.750Z,1.30
2022-09-17T12:30:13.375Z,1.30
2022-09-17T12:32:59.983Z,1.55
2022-09-17T12:36:03.991Z,1.00
2022-09-17T12:39:02.887Z,1.10
2022-09-17T12:41:40.568Z,1.30
2022-09-17T12:44:35.486Z,1.13
2022-09-17T12:47:38.167Z,0.85
2022-09-17T12:50:31.385Z,1.00
2022-09-17T12:53:27.659Z,1.35
2022-09-17T12:56:22.150Z,5.28
2022-09-17T12:59:05.890Z,1.05
2022-09-17T13:01:58.883Z,1.50
2022-09-17T13:05:04.261Z,1.63
2022-09-17T13:07:54.692Z,1.35
2022-09-17T13:10:52.741Z,1.17
2022-09-17T13:13:27.219Z,1.15
2022-09-17T13:16:25.836Z,1.23
2022-09-17T13:19:16.882Z,1.80
2022-09-17T13:21:55.624Z,1.75
2022-09-17T13:24:31.150Z,1.20
2022-09-17T13:27:04.974Z,1.55
2022-09-17T13:29:46.141Z,1.45
2022-09-17T13:32:32.890Z,1.17
2022-09-17T13:35:13.121Z,1.42
2022-09-17T13:37:56.605Z,1.25
2022-09-17T13:40:38.096Z,1.40
2022-09-17T13:43:12.931Z,1.40
2022-09-17T13:45:59.550Z,1.33
2022-09-17T13:48:36.106Z,1.73
2022-09-17T13:51:33.995Z,1.27
2022-09-17T13:54:08.515Z,1.25
2022-09-17T13:59:24.754Z,1.08
2022-09-17T14:01:57.926Z,1.30
2022-09-17T14:04:32.417Z,1.50
2022-09-17T14:07:23.953Z,1.42
2022-09-17T14:10:25.856Z,1.20
2022-09-17T14:13:20.315Z,1.42
2022-09-17T14:15:58.211Z,1.10
2022-09-17T14:18:34.148Z,1.65
2022-09-17T14:21:15.645Z,0.90
2022-09-17T14:23:54.595Z,0.90
2022-09-17T14:26:50.703Z,0.77
2022-09-17T14:30:09.724Z,1.45
2022-09-17T14:33:03.540Z,0.85
2022-09-17T14:35:40.148Z,0.70
2022-09-17T14:38:22.746Z,0.80
2022-09-17T14:41:04.968Z,0.93
2022-09-17T14:43:42.342Z,0.80
2022-09-17T14:46:20.431Z,1.17
2022-09-17T14:48:52.145Z,0.90
2022-09-17T14:51:29.532Z,1.10
2022-09-17T14:54:05.125Z,0.93
2022-09-17T14:56:45.600Z,1.40
2022-09-17T14:59:43.353Z,1.45
2022-09-17T15:02:33.675Z,1.20
2022-09-17T15:05:17.695Z,1.23
2022-09-17T15:07:49.621Z,1.33
2022-09-17T15:10:22.698Z,1.48
2022-09-17T15:12:58.395Z,1.20
2022-09-17T15:15:30.349Z,1.10
2022-09-17T15:18:01.972Z,1.30
2022-09-17T15:20:33.678Z,1.20
2022-09-17T15:23:20.394Z,1.33
2022-09-17T15:25:58.878Z,1.23
2022-09-17T15:28:43.524Z,1.10
2022-09-17T15:31:19.930Z,1.13
2022-09-17T15:33:51.614Z,1.30
2022-09-17T15:36:27.573Z,1.27
2022-09-17T15:38:59.501Z,1.80
2022-09-17T15:41:34.648Z,1.13
2022-09-17T15:44:31.833Z,1.40
2022-09-17T15:47:41.207Z,1.27
2022-09-17T15:50:22.699Z,1.15
2022-09-17T15:53:09.208Z,1.20
2022-09-17T15:55:44.366Z,1.65
2022-09-17T15:58:48.444Z,1.40
2022-09-17T16:01:31.748Z,1.45
2022-09-17T16:04:19.031Z,1.17
2022-09-17T16:06:57.752Z,1.10
2022-09-17T16:09:43.958Z,1.38
2022-09-17T16:12:25.081Z,1.25
2022-09-17T16:14:59.755Z,1.48
2022-09-17T16:17:37.430Z,1.30
2022-09-17T16:20:15.884Z,1.60
2022-09-17T16:22:50.969Z,1.70
2022-09-17T16:25:27.055Z,1.67
2022-09-17T16:28:02.506Z,1.60
2022-09-17T16:30:34.196Z,1.75
2022-09-17T16:33:06.891Z,2.05
2022-09-17T16:35:41.397Z,1.70
2022-09-17T16:40:49.045Z,1.63
2022-09-17T16:43:20.768Z,2.00
2022-09-17T16:46:03.867Z,1.83
2022-09-17T16:48:35.549Z,1.70
2022-09-17T16:51:12.188Z,1.70
2022-09-17T16:53:44.031Z,2.45
2022-09-17T16:56:18.508Z,1.60
2022-09-17T16:58:54.750Z,1.50
2022-09-17T17:01:26.438Z,1.42
2022-09-17T17:04:00.958Z,1.65
2022-09-17T17:09:04.356Z,1.80
2022-09-17T17:11:35.967Z,2.35
2022-09-17T17:14:11.491Z,2.38
2022-09-17T17:16:45.660Z,1.83
2022-09-17T17:19:17.892Z,1.77
2022-09-17T17:21:52.920Z,1.48
2022-09-17T17:24:24.638Z,1.80
2022-09-17T17:26:56.247Z,1.42
2022-09-17T17:29:27.862Z,1.60
2022-09-17T17:31:59.455Z,1.30
2022-09-17T17:34:31.630Z,1.33
2022-09-17T17:37:03.195Z,1.60
2022-09-17T17:39:34.835Z,1.52
2022-09-17T17:42:07.106Z,1.88
2022-09-17T17:44:38.786Z,1.50
2022-09-17T17:47:10.380Z,1.70
2022-09-17T17:49:41.994Z,2.10
2022-09-17T17:52:13.589Z,2.17
2022-09-17T17:54:45.247Z,1.83
2022-09-17T17:57:16.882Z,2.50
2022-09-17T17:59:48.509Z,1.83
2022-09-17T18:02:20.174Z,1.75
2022-09-17T18:04:51.903Z,2.28
2022-09-17T18:07:23.543Z,3.08
2022-09-17T18:09:55.164Z,1.80
2022-09-17T18:12:27.274Z,2.25
2022-09-17T18:14:59.209Z,2.60
2022-09-17T18:17:31.547Z,1.70
2022-09-17T18:20:06.750Z,1.80
2022-09-17T18:22:38.413Z,1.50
2022-09-17T18:25:10.161Z,1.90
2022-09-17T18:27:43.010Z,1.95
2022-09-17T18:30:14.824Z,1.70
2022-09-17T18:32:49.118Z,2.50
2022-09-17T18:35:20.944Z,1.83
2022-09-17T18:37:52.553Z,2.40
2022-09-17T18:40:24.222Z,3.33
2022-09-17T18:42:58.997Z,2.25
2022-09-17T18:45:30.800Z,1.80
2022-09-17T18:48:05.424Z,1.80
2022-09-17T18:53:08.523Z,1.83
2022-09-17T18:55:46.730Z,1.90
2022-09-17T18:58:21.274Z,1.73
2022-09-17T19:00:53.107Z,1.75
2022-09-17T19:03:24.849Z,2.30
2022-09-17T19:06:00.151Z,1.90
2022-09-17T19:08:32.363Z,1.70
2022-09-17T19:11:07.303Z,1.90
2022-09-17T19:13:44.289Z,1.73
2022-09-17T19:16:19.188Z,1.70
2022-09-17T19:18:53.069Z,2.40
2022-09-17T19:21:24.803Z,1.88
2022-09-17T19:23:56.401Z,2.72
2022-09-17T19:26:33.292Z,1.60
2022-09-17T19:29:20.004Z,1.85
2022-09-17T19:31:54.953Z,1.90
2022-09-17T19:34:38.180Z,1.42
2022-09-17T19:37:09.837Z,1.60
2022-09-17T19:39:41.502Z,2.70
2022-09-17T19:42:13.244Z,1.48
2022-09-17T19:44:44.904Z,2.03
2022-09-17T19:47:16.534Z,1.40
2022-09-17T19:49:50.914Z,1.80
2022-09-17T19:52:26.606Z,1.70
2022-09-17T19:54:58.162Z,1.90
2022-09-17T19:57:29.862Z,1.75
2022-09-17T20:00:01.620Z,1.90
2022-09-17T20:02:42.166Z,2.00
2022-09-17T20:05:13.829Z,1.63
2022-09-17T20:07:45.536Z,1.50
2022-09-17T20:10:17.152Z,1.77
2022-09-17T20:12:48.828Z,2.10
2022-09-17T20:15:20.524Z,1.75
2022-09-17T20:17:52.237Z,1.70
2022-09-17T20:20:28.329Z,4.03
2022-09-17T20:22:59.963Z,1.60
2022-09-17T20:25:31.534Z,1.90
2022-09-17T20:28:04.066Z,1.70
2022-09-17T20:30:35.675Z,1.83
2022-09-17T20:33:07.329Z,1.95
2022-09-17T20:35:39.156Z,1.50
2022-09-17T20:41:09.695Z,1.33
2022-09-17T20:43:43.655Z,1.60
2022-09-17T20:46:16.709Z,1.83
2022-09-17T20:48:52.597Z,1.45
2022-09-17T20:51:26.839Z,1.40
2022-09-17T20:53:59.530Z,1.85
2022-09-17T20:56:35.320Z,1.45
2022-09-17T20:59:24.862Z,1.30
2022-09-17T21:02:00.979Z,1.50
2022-09-17T21:04:32.857Z,1.50
2022-09-17T21:07:04.910Z,1.65
2022-09-17T21:09:41.843Z,1.40
2022-09-17T21:12:13.546Z,1.67
2022-09-17T21:14:45.227Z,1.42
2022-09-17T21:17:19.716Z,1.17
2022-09-17T21:19:52.567Z,1.27
2022-09-17T21:22:24.147Z,1.50
2022-09-17T21:24:57.213Z,1.40
2022-09-17T21:27:31.818Z,1.52
2022-09-17T21:30:06.373Z,1.48
2022-09-17T21:32:38.250Z,1.70
2022-09-17T21:35:09.883Z,1.52
2022-09-17T21:37:41.455Z,1.50
2022-09-17T21:40:13.141Z,1.88
2022-09-17T21:42:44.759Z,1.50
2022-09-17T21:45:16.381Z,1.48
2022-09-17T21:47:47.962Z,1.55
2022-09-17T21:50:19.635Z,1.50
2022-09-17T21:52:51.243Z,1.42
2022-09-17T21:55:22.865Z,1.38
2022-09-17T21:57:54.502Z,1.60
2022-09-17T22:00:26.813Z,1.58
2022-09-17T22:02:58.896Z,1.70
2022-09-17T22:05:32.916Z,1.67
2022-09-17T22:08:05.578Z,1.70
2022-09-17T22:10:39.265Z,1.70
2022-09-17T22:13:13.613Z,1.60
2022-09-17T22:15:56.290Z,1.67
2022-09-17T22:18:27.990Z,1.80
2022-09-17T22:21:01.918Z,1.80
2022-09-17T22:23:33.521Z,1.40
2022-09-17T22:26:06.926Z,1.90
2022-09-17T22:28:38.619Z,1.70
2022-09-17T22:31:12.401Z,1.77
2022-09-17T22:33:46.348Z,1.80
2022-09-17T22:36:21.125Z,1.50
2022-09-17T22:44:05.387Z,1.88
2022-09-17T22:46:41.877Z,1.65
2022-09-17T22:49:14.385Z,1.70
2022-09-17T22:51:47.186Z,1.80
2022-09-17T22:54:22.438Z,1.65
2022-09-17T22:56:54.297Z,1.50
2022-09-17T22:59:28.902Z,2.05
2022-09-17T23:04:34.892Z,1.70
2022-09-17T23:07:09.114Z,1.38
2022-09-17T23:09:40.698Z,1.63
2022-09-17T23:12:12.364Z,2.58
2022-09-17T23:14:43.920Z,1.55
2022-09-17T23:17:15.610Z,1.45
2022-09-17T23:19:47.190Z,1.45
2022-09-17T23:22:20.955Z,1.38
2022-09-17T23:24:52.571Z,1.40
2022-09-17T23:27:24.221Z,1.60
2022-09-17T23:29:55.797Z,1.80
2022-09-17T23:32:27.624Z,1.45
2022-09-17T23:34:59.219Z,3.25
2022-09-17T23:37:33.328Z,1.63
2022-09-17T23:40:07.016Z,1.30
2022-09-17T23:42:40.751Z,1.40
2022-09-17T23:45:12.329Z,1.33
2022-09-17T23:47:43.966Z,1.38
2022-09-17T23:50:15.666Z,1.25
2022-09-17T23:52:47.265Z,1.20
2022-09-17T23:55:18.827Z,1.48
2022-09-17T23:57:50.461Z,1.20
